Time;durP1;ratioP1;P1;durP2;ratioP2;P2;SDS_P1;SDS_P2;PMS_P1;PMS_P2;Temp;Humidity;BMP_temperature;BMP_pressure;BME280_temperature;BME280_humidity;BME280_pressure;Samples;Min_cycle;Max_cycle;Signal;HPM_P1;HPM_P2
2024/01/23 00:00:23;;;;;;;;;;;;;;;-6.51;100.00;98098.23;110396;1240;68522;-56
2024/01/23 00:03:14;;;;;;;;;;;;;;;-6.51;100.00;98093.15;110231;1242;58910;-59
2024/01/23 00:05:46;;;;;;;;;;;;;;;-6.56;100.00;98091.58;110300;1240;58888;-60
2024/01/23 00:08:18;;;;;;;;;;;;;;;-6.62;100.00;98088.33;110307;1239;70822;-60
2024/01/23 00:10:48;;;;;;;;;;;;;;;-6.62;100.00;98088.31;110191;1245;69847;-60
2024/01/23 00:13:19;;;;;;;;;;;;;;;-6.63;100.00;98091.55;110216;1241;69497;-59
2024/01/23 00:15:49;;;;;;;;;;;;;;;-6.61;100.00;98090.70;110274;1243;58894;-60
2024/01/23 00:18:26;;;;;;;;;;;;;;;-6.59;100.00;98096.66;110283;1242;58932;-60
2024/01/23 00:20:55;;;;;;;;;;;;;;;-6.59;100.00;98096.31;110281;1241;70604;-59
2024/01/23 00:23:25;;;;;;;;;;;;;;;-6.57;100.00;98092.42;110326;1242;69179;-59
2024/01/23 00:25:55;;;;;;;;;;;;;;;-6.51;100.00;98092.46;110362;1241;69784;-58
2024/01/23 00:28:25;;;;;;;;;;;;;;;-6.48;100.00;98089.42;110394;1240;58907;-60
2024/01/23 00:30:55;;;;;;;;;;;;;;;-6.48;100.00;98089.77;110388;1243;58858;-59
2024/01/23 00:33:25;;;;;;;;;;;;;;;-6.57;100.00;98091.74;110426;1241;69602;-59
2024/01/23 00:35:55;;;;;;;;;;;;;;;-6.66;100.00;98091.52;110412;1239;68408;-59
2024/01/23 00:38:26;;;;;;;;;;;;;;;-6.75;100.00;98093.34;110353;1241;69300;-58
2024/01/23 00:40:57;;;;;;;;;;;;;;;-6.83;100.00;98089.05;110418;1240;58930;-61
2024/01/23 00:43:30;;;;;;;;;;;;;;;-6.88;100.00;98084.94;110330;1240;58909;-57
2024/01/23 00:46:01;;;;;;;;;;;;;;;-6.94;100.00;98076.26;110490;1242;71561;-59
2024/01/23 00:48:33;;;;;;;;;;;;;;;-6.96;100.00;98076.25;110529;1239;68566;-59
2024/01/23 00:51:05;;;;;;;;;;;;;;;-6.90;100.00;98073.23;110440;1239;69765;-59
2024/01/23 00:53:38;;;;;;;;;;;;;;;-6.84;100.00;98073.11;110458;1241;58925;-59
2024/01/23 00:56:10;;;;;;;;;;;;;;;-6.78;100.00;98066.19;110482;1241;58901;-60
2024/01/23 00:58:43;;;;;;;;;;;;;;;-6.74;100.00;98060.96;110470;1239;70155;-60
2024/01/23 01:01:13;;;;;;;;;;;;;;;-6.70;100.00;98058.27;110412;1240;69317;-60
2024/01/23 01:03:43;;;;;;;;;;;;;;;-6.68;100.00;98058.46;110408;1241;67448;-60
2024/01/23 01:06:13;;;;;;;;;;;;;;;-6.66;100.00;98061.16;110258;1241;58947;-58
2024/01/23 01:08:46;;;;;;;;;;;;;;;-6.66;100.00;98060.33;110368;1240;58897;-60
2024/01/23 01:11:18;;;;;;;;;;;;;;;-6.67;100.00;98056.58;110380;1241;69764;-59
2024/01/23 01:13:47;;;;;;;;;;;;;;;-6.66;100.00;98054.05;110403;1240;68558;-60
2024/01/23 01:16:24;;;;;;;;;;;;;;;-6.64;100.00;98054.08;110378;1240;69352;-59
2024/01/23 01:18:58;;;;;;;;;;;;;;;-6.63;100.00;98052.71;110365;1241;58899;-59
2024/01/23 01:21:31;;;;;;;;;;;;;;;-6.63;100.00;98045.26;110374;1241;58780;-57
2024/01/23 01:24:04;;;;;;;;;;;;;;;-6.62;100.00;98044.06;110462;1241;70409;-58
2024/01/23 01:26:38;;;;;;;;;;;;;;;-6.63;100.00;98042.88;110390;1248;68298;-59
2024/01/23 01:29:11;;;;;;;;;;;;;;;-6.64;100.00;98041.52;110365;1240;68186;-60
2024/01/23 01:31:42;;;;;;;;;;;;;;;-6.66;100.00;98042.52;110523;1243;58888;-60
2024/01/23 01:34:13;;;;;;;;;;;;;;;-6.68;100.00;98039.80;110351;1240;58891;-58
2024/01/23 01:36:44;;;;;;;;;;;;;;;-6.68;100.00;98035.23;110298;1241;70405;-59
2024/01/23 01:39:17;;;;;;;;;;;;;;;-6.66;100.00;98031.66;110388;1240;69273;-59
2024/01/23 01:41:52;;;;;;;;;;;;;;;-6.63;100.00;98025.41;110531;1241;68126;-59
2024/01/23 01:44:24;;;;;;;;;;;;;;;-6.61;100.00;98017.95;110416;1240;58869;-60
2024/01/23 01:46:56;;;;;;;;;;;;;;;-6.58;100.00;98015.95;110446;1246;58935;-60
2024/01/23 01:49:32;;;;;;;;;;;;;;;-6.58;100.00;98009.84;110347;1241;70500;-60
2024/01/23 01:52:05;;;;;;;;;;;;;;;-6.60;100.00;98002.20;110389;1242;69225;-59
2024/01/23 01:54:40;;;;;;;;;;;;;;;-6.63;100.00;97995.73;110331;1241;69313;-59
2024/01/23 01:57:15;;;;;;;;;;;;;;;-6.62;100.00;97994.05;110378;1240;58945;-59
2024/01/23 01:59:45;;;;;;;;;;;;;;;-6.63;100.00;97993.02;110395;1242;58872;-60
2024/01/23 02:02:15;;;;;;;;;;;;;;;-6.64;100.00;97989.63;110486;1241;70416;-60
2024/01/23 02:04:47;;;;;;;;;;;;;;;-6.65;100.00;97985.23;110406;1242;69250;-60
2024/01/23 02:07:18;;;;;;;;;;;;;;;-6.66;100.00;97977.08;110540;1241;68332;-59
2024/01/23 02:09:51;;;;;;;;;;;;;;;-6.65;100.00;97976.25;110407;1241;58894;-59
2024/01/23 02:12:21;;;;;;;;;;;;;;;-6.63;100.00;97975.23;110559;1241;58827;-60
2024/01/23 02:14:51;;;;;;;;;;;;;;;-6.61;100.00;97977.42;110508;1239;70668;-59
2024/01/23 02:17:24;;;;;;;;;;;;;;;-6.62;100.00;97974.55;110395;1241;69224;-59
2024/01/23 02:19:54;;;;;;;;;;;;;;;-6.63;100.00;97972.69;110396;1241;69343;-58
2024/01/23 02:22:25;;;;;;;;;;;;;;;-6.62;100.00;97969.30;110348;1241;58857;-59
2024/01/23 02:24:56;;;;;;;;;;;;;;;-6.62;100.00;97966.58;110381;1241;58858;-59
2024/01/23 02:27:27;;;;;;;;;;;;;;;-6.62;100.00;97962.52;110366;1242;68920;-60
2024/01/23 02:29:58;;;;;;;;;;;;;;;-6.60;100.00;97962.36;110320;1241;69291;-59
2024/01/23 02:32:33;;;;;;;;;;;;;;;-6.59;100.00;97961.52;110378;1238;69018;-59
2024/01/23 02:35:06;;;;;;;;;;;;;;;-6.62;100.00;97958.10;110391;1241;58886;-59
2024/01/23 02:37:40;;;;;;;;;;;;;;;-6.62;100.00;97952.67;110383;1241;58856;-60
2024/01/23 02:40:11;;;;;;;;;;;;;;;-6.62;100.00;97952.00;110418;1241;71179;-59
2024/01/23 02:42:43;;;;;;;;;;;;;;;-6.63;100.00;97944.38;110391;1241;69277;-59
2024/01/23 02:45:18;;;;;;;;;;;;;;;-6.63;100.00;97937.42;110370;1242;69608;-58
2024/01/23 02:47:51;;;;;;;;;;;;;;;-6.65;100.00;97928.77;110370;1244;58936;-59
2024/01/23 02:50:22;;;;;;;;;;;;;;;-6.68;100.00;97921.47;110445;1241;58922;-60
2024/01/23 02:52:54;;;;;;;;;;;;;;;-6.73;100.00;97918.73;110531;1241;70616;-59
2024/01/23 02:55:23;;;;;;;;;;;;;;;-6.76;100.00;97918.39;110435;1241;69325;-60
2024/01/23 02:57:54;;;;;;;;;;;;;;;-6.79;100.00;97914.81;110397;1242;68408;-59
2024/01/23 03:00:24;;;;;;;;;;;;;;;-6.82;100.00;97912.09;110330;1243;58856;-59
2024/01/23 03:02:56;;;;;;;;;;;;;;;-6.87;100.00;97904.95;110360;1243;59301;-59
2024/01/23 03:05:28;;;;;;;;;;;;;;;-6.90;100.00;97897.14;110389;1247;70605;-60
2024/01/23 03:07:59;;;;;;;;;;;;;;;-6.92;100.00;97892.57;110422;1240;68516;-59
2024/01/23 03:10:30;;;;;;;;;;;;;;;-6.92;100.00;97891.89;110331;1241;67397;-60
2024/01/23 03:13:02;;;;;;;;;;;;;;;-6.92;100.00;97890.87;110352;1241;58897;-59
2024/01/23 03:15:32;;;;;;;;;;;;;;;-6.95;100.00;97884.58;110436;1241;58925;-60
2024/01/23 03:18:04;;;;;;;;;;;;;;;-6.97;100.00;97884.23;110357;1239;68771;-60
2024/01/23 03:20:42;;;;;;;;;;;;;;;-7.02;100.00;97881.86;110443;1242;68519;-60
2024/01/23 03:23:13;;;;;;;;;;;;;;;-7.03;100.00;97880.48;110473;1242;68540;-59
2024/01/23 03:25:45;;;;;;;;;;;;;;;-7.04;100.00;97872.68;110339;1241;59194;-59
2024/01/23 03:28:16;;;;;;;;;;;;;;;-7.02;100.00;97872.02;110365;1240;58985;-59
2024/01/23 03:30:46;;;;;;;;;;;;;;;-6.98;100.00;97870.85;110414;1242;70577;-59
2024/01/23 03:33:16;;;;;;;;;;;;;;;-6.94;100.00;97868.48;110378;1241;69299;-60
2024/01/23 03:35:50;;;;;;;;;;;;;;;-6.91;100.00;97870.36;110404;1248;69216;-57
2024/01/23 03:38:24;;;;;;;;;;;;;;;-6.88;100.00;97866.82;110485;1241;58884;-58
2024/01/23 03:40:58;;;;;;;;;;;;;;;-6.86;100.00;97869.02;110485;1240;59332;-59
2024/01/23 03:43:32;;;;;;;;;;;;;;;-6.84;100.00;97865.46;110495;1242;69876;-60
2024/01/23 03:46:04;;;;;;;;;;;;;;;-6.84;100.00;97861.08;110490;1240;69184;-60
2024/01/23 03:48:35;;;;;;;;;;;;;;;-6.84;100.00;97865.82;110427;1242;69085;-59
2024/01/23 03:51:06;;;;;;;;;;;;;;;-6.83;100.00;97857.86;110483;1242;58881;-59
2024/01/23 03:53:36;;;;;;;;;;;;;;;-6.83;100.00;97860.58;110465;1242;58896;-60
2024/01/23 03:56:06;;;;;;;;;;;;;;;-6.84;100.00;97858.19;110458;1241;70565;-61
2024/01/23 03:58:35;;;;;;;;;;;;;;;-6.88;100.00;97859.19;110422;1239;69156;-59
2024/01/23 04:01:07;;;;;;;;;;;;;;;-6.94;100.00;97856.63;110383;1242;68368;-60
2024/01/23 04:03:38;;;;;;;;;;;;;;;-6.98;100.00;97856.10;110445;1248;58932;-59
2024/01/23 04:06:08;;;;;;;;;;;;;;;-7.00;100.00;97855.59;110509;1241;58870;-60
2024/01/23 04:08:39;;;;;;;;;;;;;;;-7.02;100.00;97850.01;110499;1242;70681;-60
2024/01/23 04:11:12;;;;;;;;;;;;;;;-7.01;100.00;97850.16;110390;1242;69144;-59
2024/01/23 04:13:45;;;;;;;;;;;;;;;-6.99;100.00;97851.52;110316;1240;69267;-60
2024/01/23 04:16:16;;;;;;;;;;;;;;;-6.99;100.00;97852.88;110390;1240;59278;-59
2024/01/23 04:18:46;;;;;;;;;;;;;;;-6.97;100.00;97852.73;110370;1240;58867;-60
2024/01/23 04:21:19;;;;;;;;;;;;;;;-6.96;100.00;97853.74;110359;1241;70462;-57
2024/01/23 04:23:48;;;;;;;;;;;;;;;-6.94;100.00;97862.38;110387;1240;68345;-60
2024/01/23 04:26:20;;;;;;;;;;;;;;;-6.92;100.00;97861.05;110361;1243;69319;-60
2024/01/23 04:28:50;;;;;;;;;;;;;;;-6.88;100.00;97863.09;110382;1242;58935;-59
2024/01/23 04:31:20;;;;;;;;;;;;;;;-6.85;100.00;97863.10;110411;1241;58949;-59
2024/01/23 04:33:49;;;;;;;;;;;;;;;-6.83;100.00;97860.40;110389;1249;70541;-58
2024/01/23 04:36:19;;;;;;;;;;;;;;;-6.83;100.00;97856.67;110532;1244;69212;-59
2024/01/23 04:38:51;;;;;;;;;;;;;;;-6.81;100.00;97858.86;110378;1241;69577;-60
2024/01/23 04:41:22;;;;;;;;;;;;;;;-6.82;100.00;97858.54;110490;1243;58927;-60
2024/01/23 04:43:53;;;;;;;;;;;;;;;-6.84;100.00;97861.58;110458;1246;58862;-61
2024/01/23 04:46:23;;;;;;;;;;;;;;;-6.87;100.00;97860.89;110549;1241;70584;-60
2024/01/23 04:48:52;;;;;;;;;;;;;;;-6.89;100.00;97864.43;110397;1242;68048;-59
2024/01/23 04:51:22;;;;;;;;;;;;;;;-6.92;100.00;97861.04;110388;1240;69838;-61
2024/01/23 04:53:52;;;;;;;;;;;;;;;-6.95;100.00;97854.25;110263;1243;59662;-60
2024/01/23 04:56:22;;;;;;;;;;;;;;;-6.96;100.00;97857.98;110450;1238;59699;-60
2024/01/23 04:58:52;;;;;;;;;;;;;;;-6.97;100.00;97864.59;110508;1242;72579;-61
2024/01/23 05:01:23;;;;;;;;;;;;;;;-6.98;100.00;97866.44;110424;1242;69170;-61
2024/01/23 05:03:53;;;;;;;;;;;;;;;-6.99;100.00;97861.35;110343;1241;69307;-59
2024/01/23 05:06:22;;;;;;;;;;;;;;;-6.99;100.00;97862.54;110372;1242;59715;-59
2024/01/23 05:08:52;;;;;;;;;;;;;;;-6.98;100.00;97862.02;110406;1242;59725;-59
2024/01/23 05:11:21;;;;;;;;;;;;;;;-6.97;100.00;97874.41;110457;1248;71689;-59
2024/01/23 05:13:51;;;;;;;;;;;;;;;-6.97;100.00;97867.63;110507;1243;69118;-60
2024/01/23 05:16:21;;;;;;;;;;;;;;;-6.95;100.00;97868.14;110466;1242;69231;-60
2024/01/23 05:18:52;;;;;;;;;;;;;;;-6.95;100.00;97869.66;110468;1242;59737;-60
2024/01/23 05:21:22;;;;;;;;;;;;;;;-6.95;100.00;97872.21;110451;1239;59741;-61
2024/01/23 05:23:52;;;;;;;;;;;;;;;-6.95;100.00;97876.62;110391;1242;71343;-60
2024/01/23 05:26:22;;;;;;;;;;;;;;;-6.95;100.00;97875.27;110432;1242;69788;-57
2024/01/23 05:28:52;;;;;;;;;;;;;;;-6.95;100.00;97881.52;110387;1242;67576;-61
2024/01/23 05:31:22;;;;;;;;;;;;;;;-6.97;100.00;97892.21;110454;1242;59686;-60
2024/01/23 05:33:51;;;;;;;;;;;;;;;-6.99;100.00;97891.85;110508;1238;59793;-56
2024/01/23 05:36:22;;;;;;;;;;;;;;;-7.02;100.00;97892.53;110431;1241;72017;-58
2024/01/23 05:38:52;;;;;;;;;;;;;;;-7.03;100.00;97896.91;110541;1242;68479;-60
2024/01/23 05:41:22;;;;;;;;;;;;;;;-7.04;100.00;97900.98;110471;1242;68600;-59
2024/01/23 05:43:52;;;;;;;;;;;;;;;-7.06;100.00;97901.32;110472;1241;59693;-59
2024/01/23 05:46:22;;;;;;;;;;;;;;;-7.06;100.00;97901.66;110465;1241;59646;-59
2024/01/23 05:48:51;;;;;;;;;;;;;;;-7.05;100.00;97901.32;110382;1241;70464;-60
2024/01/23 05:51:22;;;;;;;;;;;;;;;-7.04;100.00;97897.08;110528;1242;69368;-61
2024/01/23 05:53:51;;;;;;;;;;;;;;;-7.04;100.00;97898.61;110348;1241;69249;-59
2024/01/23 05:56:21;;;;;;;;;;;;;;;-7.06;100.00;97905.05;110427;1242;59754;-59
2024/01/23 05:58:50;;;;;;;;;;;;;;;-7.07;100.00;97906.90;110451;1238;59666;-60
2024/01/23 06:01:21;;;;;;;;;;;;;;;-7.07;100.00;97905.88;110414;1242;71410;-58
2024/01/23 06:03:51;;;;;;;;;;;;;;;-7.08;100.00;97908.23;110337;1238;69387;-58
2024/01/23 06:06:21;;;;;;;;;;;;;;;-7.08;100.00;97904.85;110357;1241;69506;-58
2024/01/23 06:08:51;;;;;;;;;;;;;;;-7.08;100.00;97906.38;110395;1248;60100;-58
2024/01/23 06:11:21;;;;;;;;;;;;;;;-7.05;100.00;97908.43;110338;1242;60082;-60
2024/01/23 06:13:52;;;;;;;;;;;;;;;-7.00;100.00;97909.14;110335;1238;71394;-59
2024/01/23 06:16:22;;;;;;;;;;;;;;;-6.97;100.00;97913.04;110483;1242;69292;-59
2024/01/23 06:18:52;;;;;;;;;;;;;;;-6.92;100.00;97917.81;110340;1241;69207;-59
2024/01/23 06:21:22;;;;;;;;;;;;;;;-6.87;100.00;97914.28;110384;1238;60062;-59
2024/01/23 06:23:52;;;;;;;;;;;;;;;-6.81;100.00;97915.66;110375;1242;59657;-59
2024/01/23 06:26:21;;;;;;;;;;;;;;;-6.74;100.00;97921.79;110430;1242;71259;-58
2024/01/23 06:28:53;;;;;;;;;;;;;;;-6.67;100.00;97924.86;110446;1242;69117;-59
2024/01/23 06:31:28;;;;;;;;;;;;;;;-6.59;100.00;97923.19;110358;1242;69264;-59
2024/01/23 06:33:57;;;;;;;;;;;;;;;-6.50;100.00;97923.73;110412;1238;59726;-59
2024/01/23 06:36:26;;;;;;;;;;;;;;;-6.41;100.00;97923.06;110309;1242;59737;-59
2024/01/23 06:38:55;;;;;;;;;;;;;;;-6.35;100.00;97926.81;110364;1238;71383;-57
2024/01/23 06:41:25;;;;;;;;;;;;;;;-6.28;100.00;97924.13;110327;1238;69085;-59
2024/01/23 06:43:55;;;;;;;;;;;;;;;-6.21;100.00;97920.06;110394;1241;69149;-59
2024/01/23 06:46:25;;;;;;;;;;;;;;;-6.15;100.00;97921.27;110316;1238;59751;-59
2024/01/23 06:48:54;;;;;;;;;;;;;;;-6.10;100.00;97925.84;110342;1241;59737;-59
2024/01/23 06:51:27;;;;;;;;;;;;;;;-6.04;100.00;97928.91;110436;1242;70891;-58
2024/01/23 06:53:56;;;;;;;;;;;;;;;-5.95;100.00;97928.40;110474;1238;69628;-58
2024/01/23 06:56:29;;;;;;;;;;;;;;;-5.88;100.00;97924.98;110356;1243;69141;-58
2024/01/23 06:58:58;;;;;;;;;;;;;;;-5.80;100.00;97931.95;110349;1242;59741;-58
2024/01/23 07:01:28;;;;;;;;;;;;;;;-5.70;100.00;97932.96;110364;1242;59723;-58
2024/01/23 07:03:57;;;;;;;;;;;;;;;-5.61;100.00;97934.50;110314;1248;72013;-59
2024/01/23 07:06:26;;;;;;;;;;;;;;;-5.54;100.00;97934.14;110447;1242;70555;-59
2024/01/23 07:08:56;;;;;;;;;;;;;;;-5.50;100.00;97935.33;110404;1242;69720;-59
2024/01/23 07:11:25;;;;;;;;;;;;;;;-5.48;100.00;97937.21;110380;1241;59738;-59
2024/01/23 07:13:55;;;;;;;;;;;;;;;-5.43;100.00;97936.69;110431;1238;59664;-59
2024/01/23 07:16:23;;;;;;;;;;;;;;;-5.36;100.00;97942.63;110439;1245;71396;-59
2024/01/23 07:18:53;;;;;;;;;;;;;;;-5.22;100.00;97944.64;110449;1241;70255;-59
2024/01/23 07:21:22;;;;;;;;;;;;;;;-5.11;100.00;97944.44;110356;1240;69230;-59
2024/01/23 07:23:52;;;;;;;;;;;;;;;-5.02;100.00;97950.55;110426;1242;59676;-59
2024/01/23 07:26:21;;;;;;;;;;;;;;;-4.97;100.00;97946.29;110521;1242;59734;-59
2024/01/23 07:28:51;;;;;;;;;;;;;;;-4.93;100.00;97949.52;110355;1242;72119;-60
2024/01/23 07:31:29;;;;;;;;;;;;;;;-4.82;100.00;97941.15;110509;1242;69860;-59
2024/01/23 07:33:59;;;;;;;;;;;;;;;-4.71;100.00;97946.38;110447;1238;70115;-60
2024/01/23 07:36:28;;;;;;;;;;;;;;;-4.59;100.00;97946.67;110501;1242;59735;-59
2024/01/23 07:38:58;;;;;;;;;;;;;;;-4.49;100.00;97945.44;110358;1242;60012;-60
2024/01/23 07:41:27;;;;;;;;;;;;;;;-4.37;100.00;97943.84;110177;1244;72209;-60
2024/01/23 07:43:56;;;;;;;;;;;;;;;-4.21;100.00;97940.17;110343;1242;69942;-60
2024/01/23 07:46:26;;;;;;;;;;;;;;;-4.11;100.00;97936.88;110360;1242;69776;-60
2024/01/23 07:48:55;;;;;;;;;;;;;;;-4.04;100.00;97940.41;110378;1238;59709;-60
2024/01/23 07:51:25;;;;;;;;;;;;;;;-3.97;100.00;97946.52;110455;1248;59712;-60
2024/01/23 07:53:54;;;;;;;;;;;;;;;-3.83;100.00;97947.95;110465;1242;71432;-60
2024/01/23 07:56:24;;;;;;;;;;;;;;;-3.69;100.00;97945.11;110420;1241;67640;-59
2024/01/23 07:58:53;;;;;;;;;;;;;;;-3.56;100.00;97945.87;110381;1241;69848;-59
2024/01/23 08:01:23;;;;;;;;;;;;;;;-3.37;100.00;97951.34;110307;1242;59751;-60
2024/01/23 08:03:52;;;;;;;;;;;;;;;-3.20;100.00;97948.78;110478;1238;59677;-60
2024/01/23 08:06:21;;;;;;;;;;;;;;;-3.08;100.00;97953.78;110490;1242;70752;-61
2024/01/23 08:08:51;;;;;;;;;;;;;;;-2.92;100.00;97957.38;110474;1241;69028;-62
2024/01/23 08:11:22;;;;;;;;;;;;;;;-2.80;100.00;97952.98;110419;1240;68523;-61
2024/01/23 08:13:55;;;;;;;;;;;;;;;-2.68;100.00;97951.65;110364;1241;59671;-61
2024/01/23 08:16:27;;;;;;;;;;;;;;;-2.54;100.00;97944.99;110408;1242;59629;-60
2024/01/23 08:19:01;;;;;;;;;;;;;;;-2.37;100.00;97946.84;110567;1242;71943;-61
2024/01/23 08:21:31;;;;;;;;;;;;;;;-2.24;100.00;97948.38;110472;1239;69872;-60
2024/01/23 08:24:01;;;;;;;;;;;;;;;-2.12;100.00;97951.11;110360;1241;69296;-60
2024/01/23 08:26:30;;;;;;;;;;;;;;;-1.98;100.00;97947.00;110396;1238;59754;-60
2024/01/23 08:29:00;;;;;;;;;;;;;;;-1.79;100.00;97943.64;110364;1242;59756;-59
2024/01/23 08:31:30;;;;;;;;;;;;;;;-1.69;100.00;97949.99;110296;1242;71952;-60
2024/01/23 08:33:59;;;;;;;;;;;;;;;-1.57;98.95;97949.11;110332;1238;69635;-60
2024/01/23 08:36:29;;;;;;;;;;;;;;;-1.43;97.59;97953.15;110367;1242;69277;-60
2024/01/23 08:38:59;;;;;;;;;;;;;;;-1.21;97.19;97958.77;110338;1242;59738;-60
2024/01/23 08:41:28;;;;;;;;;;;;;;;-1.08;94.84;97966.06;110472;1241;59929;-60
2024/01/23 08:43:58;;;;;;;;;;;;;;;-0.99;93.27;97967.77;110461;1238;71766;-60
2024/01/23 08:46:26;;;;;;;;;;;;;;;-0.75;91.43;97970.59;110341;1241;69479;-60
2024/01/23 08:48:58;;;;;;;;;;;;;;;-0.55;88.06;97964.40;110340;1241;69905;-60
2024/01/23 08:51:28;;;;;;;;;;;;;;;-0.48;85.00;97966.48;110368;1242;59769;-61
2024/01/23 08:53:57;;;;;;;;;;;;;;;-0.38;83.31;97972.62;110341;1240;59721;-60
2024/01/23 08:56:27;;;;;;;;;;;;;;;0.04;82.69;97972.79;110371;1241;71213;-60
2024/01/23 08:58:56;;;;;;;;;;;;;;;0.41;80.03;97975.71;110349;1240;69306;-60
2024/01/23 09:01:25;;;;;;;;;;;;;;;0.77;78.07;97979.66;110347;1238;69268;-60
2024/01/23 09:03:56;;;;;;;;;;;;;;;1.01;74.21;97972.86;110352;1241;59739;-61
2024/01/23 09:06:25;;;;;;;;;;;;;;;1.51;77.60;97967.41;110409;1238;59754;-61
2024/01/23 09:08:54;;;;;;;;;;;;;;;2.00;77.53;97961.20;110508;1238;72037;-61
2024/01/23 09:11:24;;;;;;;;;;;;;;;2.29;76.38;97951.05;110356;1241;69758;-61
2024/01/23 09:13:58;;;;;;;;;;;;;;;2.59;79.19;97939.23;110415;1242;69265;-61
2024/01/23 09:16:27;;;;;;;;;;;;;;;2.86;79.95;97930.78;110428;1241;59728;-61
2024/01/23 09:18:56;;;;;;;;;;;;;;;2.78;70.98;97932.45;110431;1241;59669;-61
2024/01/23 09:21:26;;;;;;;;;;;;;;;2.77;68.45;97939.00;110358;1240;71378;-61
2024/01/23 09:23:55;;;;;;;;;;;;;;;2.66;67.10;97938.85;110495;1241;69817;-61
2024/01/23 09:26:24;;;;;;;;;;;;;;;2.81;69.76;97937.14;110376;1240;69896;-61
2024/01/23 09:28:53;;;;;;;;;;;;;;;2.81;68.13;97936.46;110473;1241;59630;-61
2024/01/23 09:31:23;;;;;;;;;;;;;;;2.96;68.07;97935.94;110387;1238;59736;-61
2024/01/23 09:33:52;;;;;;;;;;;;;;;2.68;65.20;97946.70;110360;1242;70418;-61
2024/01/23 09:36:22;;;;;;;;;;;;;;;2.76;68.24;97951.95;110336;1238;68709;-61
2024/01/23 09:38:53;;;;;;;;;;;;;;;2.29;67.15;97955.33;110324;1242;69861;-61
2024/01/23 09:41:23;;;;;;;;;;;;;;;2.13;67.64;97958.77;110405;1240;60122;-61
2024/01/23 09:43:53;;;;;;;;;;;;;;;2.32;67.96;97958.19;110407;1240;59730;-61
2024/01/23 09:46:23;;;;;;;;;;;;;;;2.40;68.58;97952.76;110460;1241;72041;-61
2024/01/23 09:48:52;;;;;;;;;;;;;;;2.79;73.51;97944.13;110362;1241;68329;-61
2024/01/23 09:51:23;;;;;;;;;;;;;;;2.84;66.63;97945.65;110305;1243;69940;-61
2024/01/23 09:53:53;;;;;;;;;;;;;;;2.79;65.92;97945.30;110356;1240;59688;-61
2024/01/23 09:56:22;;;;;;;;;;;;;;;2.83;66.05;97945.86;110393;1241;59741;-61
2024/01/23 09:58:52;;;;;;;;;;;;;;;3.05;66.86;97948.38;110348;1238;70653;-61
2024/01/23 10:01:22;;;;;;;;;;;;;;;2.77;66.05;97943.31;110510;1241;70036;-62
2024/01/23 10:03:55;;;;;;;;;;;;;;;2.85;63.06;97939.24;110404;1242;69228;-61
2024/01/23 10:06:25;;;;;;;;;;;;;;;2.84;63.81;97944.80;110421;1242;59717;-61
2024/01/23 10:08:54;;;;;;;;;;;;;;;2.90;62.51;97943.21;110483;1241;59777;-61
2024/01/23 10:11:26;;;;;;;;;;;;;;;3.05;64.10;97936.17;110384;1240;72343;-62
2024/01/23 10:13:56;;;;;;;;;;;;;;;3.20;62.75;97943.77;110463;1238;68607;-61
2024/01/23 10:16:26;;;;;;;;;;;;;;;2.96;61.48;97951.98;110504;1242;69892;-61
2024/01/23 10:18:56;;;;;;;;;;;;;;;3.30;62.66;97956.30;110478;1242;59678;-61
2024/01/23 10:21:25;;;;;;;;;;;;;;;3.64;60.39;97951.48;110472;1240;59804;-62
2024/01/23 10:23:56;;;;;;;;;;;;;;;3.71;57.82;97954.48;110336;1239;71366;-61
2024/01/23 10:26:25;;;;;;;;;;;;;;;4.20;59.97;97946.96;110448;1241;68931;-61
2024/01/23 10:28:54;;;;;;;;;;;;;;;4.63;57.88;97943.38;110455;1241;68532;-61
2024/01/23 10:31:23;;;;;;;;;;;;;;;4.47;57.84;97940.55;110409;1240;59742;-61
2024/01/23 10:33:52;;;;;;;;;;;;;;;4.71;57.05;97934.59;110302;1241;59700;-61
2024/01/23 10:36:21;;;;;;;;;;;;;;;4.43;60.10;97931.21;110434;1238;71453;-62
2024/01/23 10:38:52;;;;;;;;;;;;;;;4.49;61.93;97936.34;110466;1238;69208;-61
2024/01/23 10:41:23;;;;;;;;;;;;;;;4.50;62.16;97937.36;110454;1238;69244;-61
2024/01/23 10:43:53;;;;;;;;;;;;;;;4.76;62.10;97938.18;110471;1240;59753;-61
2024/01/23 10:46:23;;;;;;;;;;;;;;;5.02;61.45;97935.88;110523;1238;59749;-61
2024/01/23 10:48:52;;;;;;;;;;;;;;;5.12;60.62;97932.55;110448;1238;71965;-61
2024/01/23 10:51:27;;;;;;;;;;;;;;;5.20;60.52;97924.06;110364;1242;69848;-61
2024/01/23 10:54:08;;;;;;;;;;;;;;;4.85;61.06;97918.28;110365;1241;69851;-61
2024/01/23 10:56:42;;;;;;;;;;;;;;;4.43;62.30;97912.42;110447;1238;59709;-61
2024/01/23 10:59:17;;;;;;;;;;;;;;;4.18;63.35;97912.20;110324;1242;59724;-61
2024/01/23 11:01:51;;;;;;;;;;;;;;;4.30;63.58;97916.89;110450;1238;71137;-61
2024/01/23 11:04:20;;;;;;;;;;;;;;;4.37;62.82;97923.88;110381;1241;69647;-60
2024/01/23 11:07:15;;;;;;;;;;;;;;;4.28;62.20;97930.94;110363;1241;69863;-60
2024/01/23 11:09:47;;;;;;;;;;;;;;;3.91;62.91;97927.40;110374;1241;59694;-61
2024/01/23 11:12:25;;;;;;;;;;;;;;;4.32;63.59;97927.36;110406;1248;59687;-61
2024/01/23 11:14:58;;;;;;;;;;;;;;;4.31;63.15;97925.31;109875;1239;608081;-60
2024/01/23 11:17:33;;;;;;;;;;;;;;;4.35;60.02;97933.60;110354;1240;70270;-63
2024/01/23 11:20:20;;;;;;;;;;;;;;;4.59;58.96;97938.84;110330;1242;69889;-60
2024/01/23 11:22:49;;;;;;;;;;;;;;;5.03;60.19;97941.70;110358;1241;59697;-61
2024/01/23 11:25:19;;;;;;;;;;;;;;;5.45;60.75;97937.52;110423;1238;59686;-62
2024/01/23 11:27:50;;;;;;;;;;;;;;;5.71;60.66;97935.67;110387;1241;71569;-61
2024/01/23 11:30:19;;;;;;;;;;;;;;;5.76;56.21;97943.71;110332;1241;69262;-61
2024/01/23 11:33:10;;;;;;;;;;;;;;;5.70;54.86;97946.05;110447;1241;69878;-60
2024/01/23 11:36:02;;;;;;;;;;;;;;;5.46;54.78;97948.81;110261;1242;59732;-62
2024/01/23 11:38:38;;;;;;;;;;;;;;;3.92;56.77;97951.30;110281;1241;59669;-62
2024/01/23 11:41:33;;;;;;;;;;;;;;;4.49;57.08;97956.70;110432;1241;70705;-61
2024/01/23 11:44:04;;;;;;;;;;;;;;;5.01;55.73;97960.62;110431;1247;69163;-61
2024/01/23 11:46:36;;;;;;;;;;;;;;;5.26;54.21;97967.17;110538;1238;68718;-61
2024/01/23 11:49:06;;;;;;;;;;;;;;;5.91;54.74;97964.36;110415;1241;59722;-61
2024/01/23 11:51:35;;;;;;;;;;;;;;;6.34;54.49;97958.08;110399;1242;59738;-61
2024/01/23 11:54:13;;;;;;;;;;;;;;;6.54;52.67;97967.99;110356;1238;71952;-60
2024/01/23 11:56:42;;;;;;;;;;;;;;;6.55;52.02;97971.41;110355;1241;69226;-61
2024/01/23 11:59:11;;;;;;;;;;;;;;;6.62;50.43;97966.95;110450;1240;69776;-61
2024/01/23 12:01:42;;;;;;;;;;;;;;;5.49;50.43;97972.72;110392;1240;59702;-61
2024/01/23 12:04:11;;;;;;;;;;;;;;;5.64;51.35;97982.11;110328;1242;59665;-61
2024/01/23 12:06:40;;;;;;;;;;;;;;;6.14;49.50;97972.63;110308;1238;71974;-61
2024/01/23 12:09:10;;;;;;;;;;;;;;;7.10;48.95;97977.93;110345;1240;69751;-61
2024/01/23 12:11:39;;;;;;;;;;;;;;;7.78;45.55;97976.50;110410;1238;69256;-61
2024/01/23 12:14:08;;;;;;;;;;;;;;;8.72;44.00;97977.19;110421;1241;59731;-61
2024/01/23 12:16:37;;;;;;;;;;;;;;;9.34;45.40;97977.45;110403;1241;59669;-61
2024/01/23 12:19:07;;;;;;;;;;;;;;;9.45;42.95;97971.73;110384;1241;72403;-61
2024/01/23 12:21:38;;;;;;;;;;;;;;;9.84;41.47;97965.73;110465;1238;69831;-61
2024/01/23 12:24:07;;;;;;;;;;;;;;;10.35;40.65;97969.39;110424;1241;69850;-61
2024/01/23 12:26:46;;;;;;;;;;;;;;;11.37;39.88;97977.60;110352;1241;59685;-61
2024/01/23 12:29:16;;;;;;;;;;;;;;;12.04;38.29;97978.30;110447;1240;59675;-61
2024/01/23 12:31:44;;;;;;;;;;;;;;;11.89;38.60;97972.72;110434;1241;71318;-61
2024/01/23 12:34:14;;;;;;;;;;;;;;;12.09;37.90;97967.08;110447;1241;69843;-61
2024/01/23 12:36:48;;;;;;;;;;;;;;;11.48;38.13;97966.86;110550;1241;69648;-61
2024/01/23 12:39:17;;;;;;;;;;;;;;;11.41;38.41;97965.13;110435;1241;59685;-61
2024/01/23 12:41:46;;;;;;;;;;;;;;;11.87;38.62;97960.58;110492;1241;59675;-61
2024/01/23 12:44:16;;;;;;;;;;;;;;;12.47;37.97;97964.61;110395;1241;70635;-61
2024/01/23 12:46:45;;;;;;;;;;;;;;;12.87;38.84;97974.42;110342;1241;69823;-61
2024/01/23 12:49:14;;;;;;;;;;;;;;;12.65;35.51;97973.79;110455;1238;69316;-61
2024/01/23 12:51:50;;;;;;;;;;;;;;;12.69;36.41;97978.92;110399;1242;59690;-60